createdAt,value
2019-02-19T00:00:08.123Z,-0.30
2019-02-19T00:02:39.488Z,-0.30
2019-02-19T00:05:09.791Z,-0.40
2019-02-19T00:07:40.361Z,-0.40
2019-02-19T00:10:10.518Z,-0.30
2019-02-19T00:12:40.679Z,-0.50
2019-02-19T00:15:11.117Z,-0.60
2019-02-19T00:17:41.557Z,-0.70
2019-02-19T00:20:12.982Z,-0.80
2019-02-19T00:22:43.277Z,-0.90
2019-02-19T00:25:13.423Z,-1.00
2019-02-19T00:27:43.639Z,-1.20
2019-02-19T00:30:13.638Z,-1.10
2019-02-19T00:32:43.753Z,-1.10
2019-02-19T00:35:14.069Z,-1.00
2019-02-19T00:37:45.355Z,-0.90
2019-02-19T00:40:15.650Z,-0.80
2019-02-19T00:42:45.785Z,-0.80
2019-02-19T00:45:16.947Z,-0.80
2019-02-19T00:47:47.363Z,-0.70
2019-02-19T00:50:17.490Z,-0.60
2019-02-19T00:52:47.578Z,-0.50
2019-02-19T00:55:17.657Z,-0.40
2019-02-19T00:57:47.864Z,-0.10
2019-02-19T01:00:18.252Z,0.10
2019-02-19T01:02:48.409Z,0.10
2019-02-19T01:05:18.645Z,0.20
2019-02-19T01:07:48.911Z,0.20
2019-02-19T01:10:19.010Z,0.30
2019-02-19T01:12:53.741Z,0.40
2019-02-19T01:15:25.725Z,0.60
2019-02-19T01:17:55.549Z,0.50
2019-02-19T01:20:25.736Z,0.40
2019-02-19T01:22:55.807Z,0.10
2019-02-19T01:25:25.874Z,0.00
2019-02-19T01:27:56.020Z,-0.30
2019-02-19T01:30:26.303Z,-0.50
2019-02-19T01:32:56.572Z,-0.60
2019-02-19T01:35:26.782Z,-0.70
2019-02-19T01:37:56.919Z,-0.90
2019-02-19T01:40:27.020Z,-0.90
2019-02-19T01:42:57.388Z,-0.90
2019-02-19T01:45:33.938Z,-0.80
2019-02-19T01:47:59.647Z,-0.80
2019-02-19T01:50:29.807Z,-0.80
2019-02-19T01:52:59.865Z,-0.80
2019-02-19T01:55:30.095Z,-0.70
2019-02-19T01:58:00.510Z,-0.70
2019-02-19T02:00:30.981Z,-0.60
2019-02-19T02:03:01.147Z,-0.40
2019-02-19T02:05:31.506Z,-0.30
2019-02-19T02:08:01.710Z,-0.30
2019-02-19T02:10:31.935Z,-0.20
2019-02-19T02:13:02.891Z,-0.10
2019-02-19T02:15:32.845Z,0.00
2019-02-19T02:18:03.034Z,0.10
2019-02-19T02:20:33.117Z,0.20
2019-02-19T02:23:03.255Z,0.20
2019-02-19T02:25:33.356Z,0.20
2019-02-19T02:28:03.796Z,0.20
2019-02-19T02:30:33.836Z,0.20
2019-02-19T02:33:04.056Z,0.30
2019-02-19T02:35:34.153Z,0.30
2019-02-19T02:38:04.334Z,0.20
2019-02-19T02:40:35.507Z,0.10
2019-02-19T02:43:06.861Z,0.20
2019-02-19T02:45:37.057Z,0.20
2019-02-19T02:48:07.235Z,0.30
2019-02-19T02:50:39.232Z,0.20
2019-02-19T02:53:09.394Z,0.10
2019-02-19T02:55:39.661Z,0.10
2019-02-19T02:58:10.135Z,0.00
2019-02-19T03:00:40.579Z,-0.10
2019-02-19T03:03:11.235Z,-0.20
2019-02-19T03:05:51.844Z,-0.10
2019-02-19T03:08:22.217Z,0.00
2019-02-19T03:10:52.442Z,0.20
2019-02-19T03:13:22.595Z,0.30
2019-02-19T03:16:01.894Z,0.40
2019-02-19T03:18:25.081Z,0.40
2019-02-19T03:20:55.211Z,0.40
2019-02-19T03:23:25.331Z,0.40
2019-02-19T03:25:55.402Z,0.20
2019-02-19T03:28:25.459Z,0.10
2019-02-19T03:30:55.544Z,0.00
2019-02-19T03:33:25.940Z,-0.10
2019-02-19T03:35:55.996Z,-0.20
2019-02-19T03:38:26.068Z,-0.20
2019-02-19T03:40:56.155Z,-0.30
2019-02-19T03:43:26.278Z,-0.20
2019-02-19T03:45:56.333Z,-0.20
2019-02-19T03:48:26.469Z,-0.10
2019-02-19T03:50:56.568Z,0.00
2019-02-19T03:53:26.976Z,0.00
2019-02-19T03:55:57.145Z,-0.10
2019-02-19T03:58:27.214Z,-0.10
2019-02-19T04:00:57.414Z,-0.20
2019-02-19T04:03:27.546Z,-0.20
2019-02-19T04:05:57.666Z,-0.10
2019-02-19T04:08:27.736Z,-0.10
2019-02-19T04:10:58.096Z,0.10
2019-02-19T04:13:28.175Z,0.30
2019-02-19T04:15:58.273Z,0.50
2019-02-19T04:18:28.431Z,0.50
2019-02-19T04:20:58.519Z,0.40
2019-02-19T04:23:28.710Z,0.40
2019-02-19T04:25:59.119Z,0.30
2019-02-19T04:28:29.262Z,0.00
2019-02-19T04:30:59.325Z,-0.20
2019-02-19T04:33:29.409Z,-0.30
2019-02-19T04:35:59.552Z,-0.30
2019-02-19T04:38:29.771Z,-0.30
2019-02-19T04:41:01.469Z,-0.30
2019-02-19T04:43:31.525Z,-0.30
2019-02-19T04:46:01.759Z,-0.30
2019-02-19T04:48:32.357Z,-0.40
2019-02-19T04:51:02.468Z,-0.50
2019-02-19T04:53:32.609Z,-0.50
2019-02-19T04:56:02.677Z,-0.50
2019-02-19T04:58:32.784Z,-0.40
2019-02-19T05:01:02.959Z,-0.40
2019-02-19T05:03:33.508Z,-0.40
2019-02-19T05:06:03.655Z,-0.30
2019-02-19T05:08:33.904Z,-0.20
2019-02-19T05:11:04.270Z,-0.10
2019-02-19T05:13:34.507Z,0.00
2019-02-19T05:16:04.570Z,0.30
2019-02-19T05:18:35.812Z,0.40
2019-02-19T05:21:05.881Z,0.60
2019-02-19T05:23:36.383Z,0.70
2019-02-19T05:26:07.686Z,0.80
2019-02-19T05:28:37.775Z,0.80
2019-02-19T05:31:08.596Z,0.80
2019-02-19T05:33:38.675Z,0.80
2019-02-19T05:36:09.191Z,0.80
2019-02-19T05:38:39.624Z,0.90
2019-02-19T05:41:11.013Z,0.80
2019-02-19T05:43:41.427Z,0.80
2019-02-19T05:46:11.615Z,0.70
2019-02-19T05:48:41.729Z,0.50
2019-02-19T05:51:11.793Z,0.50
2019-02-19T05:53:41.909Z,0.70
2019-02-19T05:56:12.067Z,0.80
2019-02-19T05:58:42.132Z,0.70
2019-02-19T06:01:12.292Z,0.90
2019-02-19T06:03:42.588Z,1.00
2019-02-19T06:06:12.759Z,0.90
2019-02-19T06:08:42.956Z,0.80
2019-02-19T06:11:13.238Z,0.70
2019-02-19T06:13:43.317Z,0.30
2019-02-19T06:16:13.641Z,0.20
2019-02-19T06:18:43.728Z,0.10
2019-02-19T06:21:13.980Z,-0.10
2019-02-19T06:23:44.071Z,-0.10
2019-02-19T06:26:14.117Z,0.00
2019-02-19T06:28:45.600Z,0.10
2019-02-19T06:31:16.147Z,0.20
2019-02-19T06:33:46.249Z,0.40
2019-02-19T06:36:16.336Z,0.40
2019-02-19T06:38:46.728Z,0.50
2019-02-19T06:41:17.303Z,0.50
2019-02-19T06:43:47.452Z,0.60
2019-02-19T06:46:19.279Z,0.80
2019-02-19T06:48:49.566Z,0.80
2019-02-19T06:51:20.020Z,0.90
2019-02-19T06:53:50.170Z,1.10
2019-02-19T06:56:20.406Z,1.00
2019-02-19T06:58:50.534Z,0.90
2019-02-19T07:01:38.853Z,0.90
2019-02-19T07:04:15.878Z,1.00
2019-02-19T07:06:46.115Z,1.20
2019-02-19T07:09:16.213Z,1.30
2019-02-19T07:11:46.313Z,1.40
2019-02-19T07:14:16.403Z,1.40
2019-02-19T07:16:48.117Z,1.50
2019-02-19T07:19:18.295Z,1.60
2019-02-19T07:21:48.547Z,1.70
2019-02-19T07:24:18.914Z,1.80
2019-02-19T07:26:48.980Z,1.90
2019-02-19T07:29:19.397Z,2.10
2019-02-19T07:31:49.498Z,2.10
2019-02-19T07:34:19.839Z,2.30
2019-02-19T07:36:50.003Z,2.60
2019-02-19T07:39:20.180Z,2.80
2019-02-19T07:41:50.473Z,3.00
2019-02-19T07:44:20.634Z,3.20
2019-02-19T07:46:50.708Z,3.30
2019-02-19T07:49:21.069Z,3.40
2019-02-19T07:51:51.269Z,3.50
2019-02-19T07:54:21.564Z,3.60
2019-02-19T07:56:51.721Z,3.70
2019-02-19T07:59:23.141Z,3.80
2019-02-19T08:01:53.576Z,4.00
2019-02-19T08:04:23.689Z,4.10
2019-02-19T08:06:54.124Z,4.30
2019-02-19T08:09:24.297Z,4.60
2019-02-19T08:11:54.386Z,4.80
2019-02-19T08:14:25.857Z,4.70
2019-02-19T08:16:57.273Z,4.80
2019-02-19T08:19:27.381Z,4.90
2019-02-19T08:21:57.518Z,5.00
2019-02-19T08:24:27.621Z,5.10
2019-02-19T08:26:57.750Z,5.10
2019-02-19T08:29:27.923Z,5.10
2019-02-19T08:31:58.337Z,5.30
2019-02-19T08:34:28.417Z,5.20
2019-02-19T08:36:58.671Z,5.50
2019-02-19T08:39:28.771Z,5.60
2019-02-19T08:41:58.844Z,5.70
2019-02-19T08:44:29.267Z,5.80
2019-02-19T08:46:59.349Z,5.90
2019-02-19T08:49:29.452Z,6.00
2019-02-19T08:51:59.609Z,6.20
2019-02-19T08:54:29.777Z,6.40
2019-02-19T08:56:59.826Z,6.50
2019-02-19T08:59:30.028Z,6.60
2019-02-19T09:02:00.401Z,6.70
2019-02-19T09:04:30.567Z,6.90
2019-02-19T09:07:00.723Z,7.00
2019-02-19T09:09:30.813Z,7.20
2019-02-19T09:12:00.991Z,7.30
2019-02-19T09:14:31.150Z,7.40
2019-02-19T09:17:01.465Z,7.60
2019-02-19T09:19:34.337Z,7.70
2019-02-19T09:22:05.703Z,8.00
2019-02-19T09:24:37.427Z,8.20
2019-02-19T09:27:08.664Z,8.30
2019-02-19T09:29:38.754Z,8.50
2019-02-19T09:32:08.896Z,8.60
2019-02-19T09:34:38.996Z,8.90
2019-02-19T09:37:09.291Z,9.00
2019-02-19T09:39:39.570Z,9.10
2019-02-19T09:42:09.797Z,9.20
2019-02-19T09:44:39.875Z,9.30
2019-02-19T09:47:10.002Z,9.50
2019-02-19T09:49:42.401Z,9.60
2019-02-19T09:52:12.798Z,9.70
2019-02-19T09:54:42.950Z,9.70
2019-02-19T09:57:14.658Z,9.90
2019-02-19T09:59:44.799Z,9.90
2019-02-19T10:02:14.924Z,10.00
2019-02-19T10:04:45.046Z,10.00
2019-02-19T10:07:15.143Z,10.10
2019-02-19T10:09:46.806Z,10.10
2019-02-19T10:12:16.884Z,10.10
2019-02-19T10:14:46.982Z,10.20
2019-02-19T10:17:17.079Z,10.30
2019-02-19T10:19:47.196Z,10.40
2019-02-19T10:22:17.267Z,10.50
2019-02-19T10:24:47.612Z,10.60
2019-02-19T10:27:17.971Z,10.60
2019-02-19T10:29:49.070Z,10.60
2019-02-19T10:32:19.192Z,10.60
2019-02-19T10:34:49.351Z,10.60
2019-02-19T10:37:19.762Z,10.60
2019-02-19T10:39:49.872Z,10.60
2019-02-19T10:42:20.129Z,10.60
2019-02-19T10:44:50.269Z,10.60
2019-02-19T10:47:20.381Z,10.70
2019-02-19T10:49:50.767Z,10.90
2019-02-19T10:52:20.976Z,10.90
2019-02-19T10:54:51.249Z,11.00
2019-02-19T10:57:21.899Z,11.20
2019-02-19T10:59:52.068Z,11.20
2019-02-19T11:02:22.157Z,11.20
2019-02-19T11:04:53.301Z,11.30
2019-02-19T11:07:23.393Z,11.40
2019-02-19T11:09:53.598Z,11.60
2019-02-19T11:12:24.077Z,11.30
2019-02-19T11:14:57.187Z,11.40
2019-02-19T11:17:27.414Z,11.40
2019-02-19T11:19:57.494Z,11.50
2019-02-19T11:22:27.651Z,11.70
2019-02-19T11:24:58.073Z,11.80
2019-02-19T11:27:28.092Z,12.00
2019-02-19T11:29:58.239Z,12.20
2019-02-19T11:32:28.488Z,12.30
2019-02-19T11:34:58.658Z,12.10
2019-02-19T11:37:29.118Z,12.10
2019-02-19T11:39:59.206Z,12.10
2019-02-19T11:42:29.321Z,12.20
2019-02-19T11:44:59.607Z,12.20
2019-02-19T11:47:29.766Z,12.80
2019-02-19T11:50:00.024Z,13.20
2019-02-19T11:52:30.157Z,13.00
2019-02-19T11:55:00.395Z,13.30
2019-02-19T11:57:30.523Z,12.70
2019-02-19T12:00:00.667Z,12.20
2019-02-19T12:02:32.932Z,12.00
2019-02-19T12:05:02.553Z,12.00
2019-02-19T12:07:32.686Z,12.10
2019-02-19T12:10:02.784Z,11.80
2019-02-19T12:12:33.163Z,11.60
2019-02-19T12:15:03.323Z,11.60
2019-02-19T12:17:33.431Z,11.50
2019-02-19T12:20:03.717Z,11.50
2019-02-19T12:22:35.294Z,11.50
2019-02-19T12:25:05.830Z,11.50
2019-02-19T12:27:36.392Z,11.50
2019-02-19T12:30:07.730Z,11.50
2019-02-19T12:32:37.909Z,11.60
2019-02-19T12:35:10.078Z,11.60
2019-02-19T12:37:40.412Z,11.60
2019-02-19T12:40:11.222Z,11.60
2019-02-19T12:42:41.361Z,11.60
2019-02-19T12:45:11.875Z,11.60
2019-02-19T12:47:42.251Z,11.60
2019-02-19T12:50:13.391Z,11.70
2019-02-19T12:52:43.612Z,11.80
2019-02-19T12:55:13.851Z,12.00
2019-02-19T12:57:44.013Z,12.10
2019-02-19T13:00:15.667Z,12.30
2019-02-19T13:02:45.803Z,12.50
2019-02-19T13:05:16.023Z,13.00
2019-02-19T13:07:47.098Z,13.40
2019-02-19T13:10:17.859Z,14.10
2019-02-19T13:12:49.144Z,14.10
2019-02-19T13:15:19.448Z,13.90
2019-02-19T13:17:49.559Z,14.00
2019-02-19T13:20:19.729Z,14.10
2019-02-19T13:22:49.951Z,14.00
2019-02-19T13:25:20.605Z,14.00
2019-02-19T13:27:50.753Z,13.80
2019-02-19T13:30:20.785Z,13.90
2019-02-19T13:32:50.943Z,14.00
2019-02-19T13:35:21.216Z,14.30
2019-02-19T13:37:51.482Z,14.50
2019-02-19T13:40:21.725Z,14.10
2019-02-19T13:42:51.881Z,13.00
2019-02-19T13:45:21.914Z,12.60
2019-02-19T13:47:52.001Z,12.70
2019-02-19T13:50:22.207Z,12.60
2019-02-19T13:52:58.095Z,12.40
2019-02-19T13:55:32.187Z,12.40
2019-02-19T13:58:03.296Z,12.40
2019-02-19T14:00:35.211Z,12.90
2019-02-19T14:03:05.418Z,13.30
2019-02-19T14:05:35.653Z,13.50
2019-02-19T14:08:13.998Z,14.10
2019-02-19T14:10:37.702Z,14.00
2019-02-19T14:13:07.869Z,13.40
2019-02-19T14:15:56.782Z,13.40
2019-02-19T14:18:46.081Z,13.30
2019-02-19T14:21:34.222Z,13.70
2019-02-19T14:24:11.833Z,13.30
2019-02-19T14:27:03.964Z,13.50
2019-02-19T14:30:08.165Z,13.70
2019-02-19T14:33:15.767Z,13.40
2019-02-19T14:36:03.251Z,12.90
2019-02-19T14:38:52.828Z,12.90
2019-02-19T14:41:51.284Z,13.20
2019-02-19T14:44:38.984Z,13.40
2019-02-19T14:47:27.688Z,13.80
2019-02-19T14:50:24.342Z,13.30
2019-02-19T14:53:16.227Z,13.00
2019-02-19T14:56:17.543Z,12.70
2019-02-19T14:59:16.219Z,13.00
2019-02-19T15:02:11.752Z,13.30
2019-02-19T15:05:10.039Z,12.60
2019-02-19T15:08:11.377Z,12.20
2019-02-19T15:11:00.768Z,12.00
2019-02-19T15:13:38.552Z,11.90
2019-02-19T15:16:23.208Z,11.80
2019-02-19T15:19:02.610Z,11.80
2019-02-19T15:21:46.498Z,11.80
2019-02-19T15:24:36.909Z,11.80
2019-02-19T15:27:28.410Z,11.70
2019-02-19T15:30:32.925Z,11.60
2019-02-19T15:33:16.252Z,11.50
2019-02-19T15:36:19.989Z,11.40
2019-02-19T15:39:11.408Z,11.30
2019-02-19T15:41:59.438Z,11.30
2019-02-19T15:44:47.328Z,11.20
2019-02-19T15:47:41.206Z,11.20
2019-02-19T15:50:39.519Z,11.10
2019-02-19T15:53:44.402Z,11.00
2019-02-19T15:56:32.243Z,10.80
2019-02-19T15:59:27.400Z,10.70
2019-02-19T16:02:08.499Z,10.60
2019-02-19T16:04:48.165Z,10.60
2019-02-19T16:07:25.045Z,10.50
2019-02-19T16:10:04.378Z,10.40
2019-02-19T16:12:45.187Z,10.40
2019-02-19T16:15:27.014Z,10.40
2019-02-19T16:18:04.967Z,10.30
2019-02-19T16:20:59.999Z,10.10
2019-02-19T16:23:48.172Z,9.90
2019-02-19T16:26:32.207Z,9.60
2019-02-19T16:29:20.870Z,9.40
2019-02-19T16:32:05.030Z,9.10
2019-02-19T16:34:54.655Z,9.00
2019-02-19T16:37:42.627Z,9.00
2019-02-19T16:40:41.641Z,9.10
2019-02-19T16:43:23.124Z,9.10
2019-02-19T16:46:12.505Z,9.20
2019-02-19T16:49:01.657Z,9.20
2019-02-19T16:51:46.625Z,9.30
2019-02-19T16:54:24.918Z,9.40
2019-02-19T16:57:07.235Z,9.30
2019-02-19T16:59:46.040Z,9.20
2019-02-19T17:02:35.386Z,9.10
2019-02-19T17:05:27.978Z,9.10
2019-02-19T17:08:08.009Z,9.00
2019-02-19T17:11:12.819Z,9.00
2019-02-19T17:14:03.473Z,9.00
2019-02-19T17:16:58.776Z,8.90
2019-02-19T17:19:46.518Z,8.90
2019-02-19T17:22:26.445Z,8.70
2019-02-19T17:25:33.638Z,8.70
2019-02-19T17:28:28.650Z,8.80
2019-02-19T17:31:16.630Z,8.80
2019-02-19T17:34:11.546Z,8.60
2019-02-19T17:37:03.428Z,8.50
2019-02-19T17:39:51.129Z,8.50
2019-02-19T17:42:30.176Z,8.50
2019-02-19T17:45:14.580Z,8.40
2019-02-19T17:48:12.686Z,8.30
2019-02-19T17:51:07.969Z,8.20
2019-02-19T17:53:48.509Z,8.00
2019-02-19T17:56:36.436Z,8.10
2019-02-19T17:59:28.455Z,8.30
2019-02-19T18:02:05.275Z,8.50
2019-02-19T18:04:48.504Z,8.60
2019-02-19T18:07:36.467Z,8.70
2019-02-19T18:10:41.813Z,8.80
2019-02-19T18:13:43.107Z,8.80
2019-02-19T18:16:21.384Z,8.60
2019-02-19T18:18:51.915Z,8.40
2019-02-19T18:21:22.196Z,8.50
2019-02-19T18:23:52.512Z,8.50
2019-02-19T18:26:23.047Z,8.60
2019-02-19T18:28:53.192Z,8.60
2019-02-19T18:31:23.524Z,8.60
2019-02-19T18:33:55.263Z,8.50
2019-02-19T18:36:25.413Z,8.50
2019-02-19T18:38:55.747Z,8.40
2019-02-19T18:41:25.933Z,8.30
2019-02-19T18:43:56.289Z,8.40
2019-02-19T18:46:28.090Z,8.30
2019-02-19T18:48:58.436Z,8.30
2019-02-19T18:51:28.992Z,8.30
2019-02-19T18:53:59.125Z,8.10
2019-02-19T18:56:29.722Z,8.00
2019-02-19T18:59:00.098Z,7.90
2019-02-19T19:01:30.606Z,7.80
2019-02-19T19:04:01.089Z,7.80
2019-02-19T19:06:31.614Z,7.70
2019-02-19T19:09:02.075Z,7.50
2019-02-19T19:11:33.273Z,7.40
2019-02-19T19:14:04.535Z,7.40
2019-02-19T19:16:34.963Z,7.30
2019-02-19T19:19:05.155Z,7.30
2019-02-19T19:21:35.424Z,7.30
2019-02-19T19:24:05.638Z,7.20
2019-02-19T19:26:36.054Z,7.20
2019-02-19T19:29:06.238Z,7.10
2019-02-19T19:31:36.440Z,7.10
2019-02-19T19:34:06.846Z,7.10
2019-02-19T19:36:37.022Z,7.00
2019-02-19T19:39:08.043Z,7.00
2019-02-19T19:41:39.676Z,7.00
2019-02-19T19:44:14.471Z,7.00
2019-02-19T19:46:44.704Z,7.00
2019-02-19T19:49:15.086Z,7.00
2019-02-19T19:51:45.363Z,6.90
2019-02-19T19:54:15.851Z,6.90
2019-02-19T19:56:46.306Z,6.90
2019-02-19T19:59:17.715Z,6.80
2019-02-19T20:01:48.202Z,6.70
2019-02-19T20:04:19.047Z,6.70
2019-02-19T20:06:49.251Z,6.70
2019-02-19T20:09:19.373Z,6.70
2019-02-19T20:11:49.577Z,6.60
2019-02-19T20:14:19.773Z,6.70
2019-02-19T20:16:50.258Z,6.60
2019-02-19T20:19:20.883Z,6.60
2019-02-19T20:21:51.259Z,6.50
2019-02-19T20:24:21.502Z,6.40
2019-02-19T20:26:51.768Z,6.40
2019-02-19T20:29:28.640Z,6.40
2019-02-19T20:32:00.121Z,6.30
2019-02-19T20:34:30.270Z,6.20
2019-02-19T20:37:00.413Z,6.30
2019-02-19T20:39:30.622Z,6.30
2019-02-19T20:42:00.800Z,6.40
2019-02-19T20:44:31.699Z,6.40
2019-02-19T20:47:01.995Z,6.30
2019-02-19T20:49:32.838Z,6.30
2019-02-19T20:52:03.290Z,6.30
2019-02-19T20:54:33.573Z,6.30
2019-02-19T20:57:03.868Z,6.30
2019-02-19T20:59:34.472Z,6.30
2019-02-19T21:02:06.372Z,6.20
2019-02-19T21:04:36.481Z,6.30
2019-02-19T21:07:07.150Z,6.30
2019-02-19T21:09:43.662Z,6.20
2019-02-19T21:12:11.650Z,6.20
2019-02-19T21:14:41.828Z,6.10
2019-02-19T21:17:13.564Z,6.10
2019-02-19T21:19:43.816Z,6.10
2019-02-19T21:22:14.070Z,6.10
2019-02-19T21:24:44.371Z,6.00
2019-02-19T21:27:15.140Z,6.00
2019-02-19T21:29:45.662Z,5.90
2019-02-19T21:32:15.839Z,5.80
2019-02-19T21:34:50.432Z,5.70
2019-02-19T21:37:20.850Z,5.70
2019-02-19T21:39:50.966Z,5.60
2019-02-19T21:42:22.019Z,5.60
2019-02-19T21:44:52.392Z,5.60
2019-02-19T21:47:22.821Z,5.60
2019-02-19T21:49:53.007Z,5.60
2019-02-19T21:52:23.219Z,5.70
2019-02-19T21:54:53.698Z,5.70
2019-02-19T21:57:25.029Z,5.70
2019-02-19T21:59:55.497Z,5.70
2019-02-19T22:02:26.991Z,5.60
2019-02-19T22:04:57.256Z,5.60
2019-02-19T22:07:27.726Z,5.60
2019-02-19T22:09:58.005Z,5.60
2019-02-19T22:12:28.138Z,5.60
2019-02-19T22:14:59.898Z,5.60
2019-02-19T22:17:30.103Z,5.60
2019-02-19T22:20:03.137Z,5.40
2019-02-19T22:22:34.316Z,5.40
2019-02-19T22:25:04.863Z,5.40
2019-02-19T22:27:35.108Z,5.30
2019-02-19T22:30:05.648Z,5.20
2019-02-19T22:32:35.883Z,5.20
2019-02-19T22:35:06.361Z,5.20
2019-02-19T22:37:36.773Z,5.20
2019-02-19T22:40:07.431Z,5.30
2019-02-19T22:42:37.713Z,5.30
2019-02-19T22:45:07.803Z,5.30
2019-02-19T22:47:38.018Z,5.40
2019-02-19T22:50:08.552Z,5.40
2019-02-19T22:52:38.862Z,5.40
2019-02-19T22:55:27.253Z,5.40
2019-02-19T22:57:57.606Z,5.40
2019-02-19T23:00:49.452Z,5.40
2019-02-19T23:03:25.239Z,5.40
2019-02-19T23:05:55.392Z,5.40
2019-02-19T23:08:25.982Z,5.50
2019-02-19T23:10:56.127Z,5.50
2019-02-19T23:13:26.313Z,5.50
2019-02-19T23:15:56.498Z,5.50
2019-02-19T23:18:26.860Z,5.50
2019-02-19T23:20:56.944Z,5.60
2019-02-19T23:23:27.065Z,5.70
2019-02-19T23:25:57.222Z,5.70
2019-02-19T23:28:27.326Z,5.70
2019-02-19T23:30:58.614Z,5.70
2019-02-19T23:33:29.088Z,5.70
2019-02-19T23:36:06.493Z,5.60
2019-02-19T23:38:36.562Z,5.70
2019-02-19T23:41:07.211Z,5.70
2019-02-19T23:43:37.564Z,5.60
2019-02-19T23:46:08.080Z,5.60
2019-02-19T23:48:40.874Z,5.60
2019-02-19T23:51:12.029Z,5.60
2019-02-19T23:53:42.212Z,5.60
2019-02-19T23:56:12.391Z,5.60
2019-02-19T23:58:42.459Z,5.60
